Time;durP1;ratioP1;P1;durP2;ratioP2;P2;SDS_P1;SDS_P2;PMS_P1;PMS_P2;Temp;Humidity;BMP_temperature;BMP_pressure;BME280_temperature;BME280_humidity;BME280_pressure;Samples;Min_cycle;Max_cycle;Signal;HPM_P1;HPM_P2
2023/09/14 00:01:33;;;;;;;4.47;2.43;;;16.30;99.90;;;;;;5068888;28;20235;-66
2023/09/14 00:04:00;;;;;;;2.60;2.10;;;16.40;99.90;;;;;;5069027;28;20406;-66
2023/09/14 00:06:27;;;;;;;2.53;2.20;;;16.50;99.90;;;;;;5068931;28;20253;-66
2023/09/14 00:08:55;;;;;;;3.77;2.50;;;16.30;99.90;;;;;;5068731;28;20322;-66
2023/09/14 00:11:22;;;;;;;3.53;2.70;;;16.20;99.90;;;;;;5068565;28;20302;-66
2023/09/14 00:13:49;;;;;;;3.20;2.23;;;16.30;99.90;;;;;;5068870;28;20303;-65
2023/09/14 00:16:16;;;;;;;4.90;2.40;;;16.20;99.90;;;;;;5084346;28;20207;-65
2023/09/14 00:18:43;;;;;;;3.27;2.63;;;16.20;99.90;;;;;;5075175;28;20350;-65
2023/09/14 00:21:10;;;;;;;3.40;2.40;;;16.20;99.90;;;;;;5088792;28;20631;-65
2023/09/14 00:23:37;;;;;;;3.33;2.60;;;16.10;99.90;;;;;;5088584;28;20303;-65
2023/09/14 00:26:05;;;;;;;5.33;2.70;;;16.20;99.90;;;;;;5088452;28;20321;-66
2023/09/14 00:28:32;;;;;;;6.53;2.80;;;16.10;99.90;;;;;;5085972;28;20295;-65
2023/09/14 00:30:59;;;;;;;3.60;2.47;;;15.90;99.90;;;;;;5068276;28;20323;-65
2023/09/14 00:33:29;;;;;;;4.50;2.80;;;16.00;99.90;;;;;;5082850;28;20639;-66
2023/09/14 00:35:56;;;;;;;3.57;2.80;;;16.00;99.90;;;;;;5087820;28;20194;-65
2023/09/14 00:38:25;;;;;;;3.20;2.37;;;16.10;99.90;;;;;;5072156;28;20320;-65
2023/09/14 00:40:52;;;;;;;4.47;2.80;;;16.00;99.90;;;;;;5076754;28;20771;-65
2023/09/14 00:43:20;;;;;;;3.47;2.57;;;16.00;99.90;;;;;;5067541;28;20199;-65
2023/09/14 00:45:47;;;;;;;2.50;2.30;;;16.10;99.90;;;;;;5080312;28;20199;-65
2023/09/14 00:48:14;;;;;;;3.50;2.47;;;16.30;99.90;;;;;;5088163;28;20724;-65
2023/09/14 00:50:42;;;;;;;3.60;2.67;;;16.40;99.90;;;;;;5088276;28;20302;-66
2023/09/14 00:53:11;;;;;;;3.73;2.50;;;16.50;99.90;;;;;;5088482;28;20298;-66
2023/09/14 00:55:39;;;;;;;4.53;2.37;;;16.50;99.90;;;;;;5087593;28;20203;-66
2023/09/14 00:58:06;;;;;;;2.57;2.27;;;16.50;99.90;;;;;;5088046;28;20261;-66
2023/09/14 01:00:34;;;;;;;3.90;2.30;;;16.40;99.90;;;;;;5088118;28;20286;-65
2023/09/14 01:03:01;;;;;;;4.07;2.60;;;16.10;99.90;;;;;;5088035;28;20305;-65
2023/09/14 01:05:30;;;;;;;6.20;2.53;;;16.10;99.90;;;;;;5088171;28;20229;-66
2023/09/14 01:07:57;;;;;;;3.77;2.10;;;16.00;99.90;;;;;;5087436;28;20727;-66
2023/09/14 01:10:25;;;;;;;7.30;2.50;;;15.90;99.90;;;;;;5067814;28;20207;-65
2023/09/14 01:12:52;;;;;;;4.43;2.90;;;15.80;99.90;;;;;;5075258;28;20199;-65
2023/09/14 01:15:25;;;;;;;2.23;2.03;;;15.60;99.90;;;;;;5083056;28;20213;-66
2023/09/14 01:18:02;;;;;;;3.30;2.40;;;15.50;99.90;;;;;;5087740;28;20978;-66
2023/09/14 01:21:09;;;;;;;2.90;2.20;;;15.60;99.90;;;;;;5087779;28;20669;-65
2023/09/14 01:23:41;;;;;;;7.23;2.50;;;15.80;99.90;;;;;;5061450;28;20289;-66
2023/09/14 01:26:10;;;;;;;7.33;2.70;;;15.90;99.90;;;;;;5087580;28;21021;-65
2023/09/14 01:28:37;;;;;;;3.67;2.23;;;16.00;99.90;;;;;;5084716;28;20255;-65
2023/09/14 01:31:04;;;;;;;2.70;2.47;;;16.10;99.90;;;;;;5067274;28;20334;-65
2023/09/14 01:33:31;;;;;;;3.23;2.50;;;16.10;99.90;;;;;;5085602;28;20647;-65
2023/09/14 01:36:06;;;;;;;3.07;2.37;;;16.10;99.90;;;;;;5086850;28;20253;-66
2023/09/14 01:38:34;;;;;;;2.50;2.23;;;16.00;99.90;;;;;;5087517;28;20238;-66
2023/09/14 01:41:02;;;;;;;4.50;2.47;;;15.80;99.90;;;;;;5083333;28;20790;-66
2023/09/14 01:43:31;;;;;;;7.03;2.97;;;15.90;99.90;;;;;;5086428;28;20203;-66
2023/09/14 01:45:59;;;;;;;3.03;2.70;;;15.90;99.90;;;;;;5087313;28;20240;-66
2023/09/14 01:48:25;;;;;;;8.17;3.07;;;15.80;99.90;;;;;;5087606;28;20329;-66
2023/09/14 01:50:52;;;;;;;3.50;2.50;;;15.80;99.90;;;;;;5086956;28;20221;-66
2023/09/14 01:53:19;;;;;;;3.83;2.40;;;15.70;99.90;;;;;;5087072;28;20310;-66
2023/09/14 01:55:46;;;;;;;4.13;2.80;;;15.70;99.90;;;;;;5087261;28;20246;-66
2023/09/14 01:58:13;;;;;;;5.70;3.00;;;15.60;99.90;;;;;;5069733;28;20400;-66
2023/09/14 02:00:41;;;;;;;2.70;2.43;;;15.50;99.90;;;;;;5066900;28;20298;-66
2023/09/14 02:03:08;;;;;;;2.87;2.20;;;15.50;99.90;;;;;;5066794;28;20247;-66
2023/09/14 02:05:36;;;;;;;2.77;2.50;;;15.60;99.90;;;;;;5067076;28;20208;-66
2023/09/14 02:08:03;;;;;;;3.47;2.37;;;15.60;99.90;;;;;;5076635;28;20325;-66
2023/09/14 02:10:29;;;;;;;4.60;2.60;;;15.60;99.90;;;;;;5087251;28;20214;-66
2023/09/14 02:12:56;;;;;;;3.13;2.27;;;15.60;99.90;;;;;;5086731;28;20214;-66
2023/09/14 02:15:23;;;;;;;4.33;2.20;;;15.70;99.90;;;;;;5086391;28;20211;-66
2023/09/14 02:17:51;;;;;;;3.30;2.40;;;15.40;99.90;;;;;;5086757;28;20326;-65
2023/09/14 02:20:18;;;;;;;3.27;2.50;;;15.40;99.90;;;;;;5085615;28;20213;-66
2023/09/14 02:22:45;;;;;;;3.50;2.93;;;15.50;99.90;;;;;;5086142;28;20705;-66
2023/09/14 02:25:12;;;;;;;3.43;2.57;;;15.50;99.90;;;;;;5087058;28;20209;-65
2023/09/14 02:27:39;;;;;;;3.03;2.20;;;15.40;99.90;;;;;;5086205;28;20311;-66
2023/09/14 02:30:08;;;;;;;4.30;2.40;;;15.40;99.90;;;;;;5073256;28;20298;-65
2023/09/14 02:32:35;;;;;;;4.47;2.93;;;15.30;99.90;;;;;;5066223;28;20286;-66
2023/09/14 02:35:04;;;;;;;3.23;2.50;;;15.40;99.90;;;;;;5066314;28;20330;-66
2023/09/14 02:37:31;;;;;;;3.83;2.67;;;15.20;99.90;;;;;;5082868;28;20716;-66
2023/09/14 02:39:58;;;;;;;5.43;2.40;;;15.10;99.90;;;;;;5085267;28;20581;-66
2023/09/14 02:42:24;;;;;;;4.53;2.67;;;15.00;99.90;;;;;;5085116;28;20315;-66
2023/09/14 02:44:51;;;;;;;3.97;2.50;;;15.10;99.90;;;;;;5080484;28;20307;-65
2023/09/14 02:47:18;;;;;;;3.50;2.80;;;15.00;99.90;;;;;;5064254;28;20241;-66
2023/09/14 02:49:45;;;;;;;3.93;2.60;;;15.10;99.90;;;;;;5064307;28;20234;-66
2023/09/14 02:52:13;;;;;;;3.17;2.60;;;15.20;99.90;;;;;;5063820;28;20199;-66
2023/09/14 02:54:40;;;;;;;3.00;2.50;;;15.10;99.90;;;;;;5063942;28;20306;-66
2023/09/14 02:57:07;;;;;;;3.37;2.37;;;15.00;99.90;;;;;;5069773;28;20294;-65
2023/09/14 02:59:34;;;;;;;3.87;2.60;;;15.00;99.90;;;;;;5083611;28;20305;-66
2023/09/14 03:02:02;;;;;;;2.73;2.43;;;15.00;99.90;;;;;;5084264;28;20203;-65
2023/09/14 03:04:29;;;;;;;4.23;2.67;;;15.00;99.90;;;;;;5081297;28;20726;-65
2023/09/14 03:06:56;;;;;;;4.90;2.70;;;14.80;99.90;;;;;;5074892;28;20254;-66
2023/09/14 03:09:24;;;;;;;3.40;2.87;;;14.70;99.90;;;;;;5075731;28;20829;-66
2023/09/14 03:11:51;;;;;;;3.13;2.80;;;14.80;99.90;;;;;;5085689;28;20294;-65
2023/09/14 03:14:18;;;;;;;2.77;2.43;;;14.80;99.90;;;;;;5084877;28;20295;-66
2023/09/14 03:16:45;;;;;;;4.97;2.70;;;14.90;99.90;;;;;;5085419;28;20297;-66
2023/09/14 03:19:12;;;;;;;3.00;2.60;;;15.00;99.90;;;;;;5085795;28;20726;-66
2023/09/14 03:21:39;;;;;;;3.27;2.97;;;15.00;99.90;;;;;;5084690;28;20992;-66
2023/09/14 03:24:06;;;;;;;4.07;2.97;;;15.10;99.90;;;;;;5085560;28;21014;-66
2023/09/14 03:26:34;;;;;;;4.63;2.57;;;15.10;99.90;;;;;;5085533;28;20215;-66
2023/09/14 03:29:02;;;;;;;5.53;2.90;;;15.10;99.90;;;;;;5085642;28;20302;-65
2023/09/14 03:31:29;;;;;;;3.23;2.60;;;15.10;99.90;;;;;;5085031;28;20297;-66
2023/09/14 03:33:56;;;;;;;3.30;3.00;;;15.10;99.90;;;;;;5078552;28;20235;-66
2023/09/14 03:36:23;;;;;;;8.40;3.27;;;15.00;99.90;;;;;;5075085;28;20685;-66
2023/09/14 03:38:50;;;;;;;2.83;2.57;;;14.90;99.90;;;;;;5085271;28;20687;-66
2023/09/14 03:41:17;;;;;;;3.40;3.00;;;15.00;99.90;;;;;;5084980;28;20283;-66
2023/09/14 03:43:47;;;;;;;7.00;2.70;;;15.00;99.90;;;;;;5084568;28;20206;-66
2023/09/14 03:46:15;;;;;;;5.77;3.00;;;15.00;99.90;;;;;;5084998;28;20301;-66
2023/09/14 03:48:42;;;;;;;3.37;2.83;;;15.00;99.90;;;;;;5084941;28;20226;-66
2023/09/14 03:51:09;;;;;;;3.27;2.90;;;14.90;99.90;;;;;;5084823;28;20297;-66
2023/09/14 03:53:36;;;;;;;2.83;2.63;;;14.90;99.90;;;;;;5085167;28;20313;-66
2023/09/14 03:56:04;;;;;;;4.93;3.53;;;14.90;99.90;;;;;;5085102;28;20207;-66
2023/09/14 03:58:31;;;;;;;3.93;2.57;;;14.90;99.90;;;;;;5084448;28;20213;-66
2023/09/14 04:01:00;;;;;;;5.50;2.70;;;14.90;99.90;;;;;;5084668;28;20250;-66
2023/09/14 04:03:27;;;;;;;8.60;3.00;;;14.90;99.90;;;;;;5084790;28;20298;-66
2023/09/14 04:05:53;;;;;;;4.20;3.10;;;14.90;99.90;;;;;;5084315;28;20878;-66
2023/09/14 04:08:22;;;;;;;5.73;3.30;;;14.90;99.90;;;;;;5084746;28;20548;-66
2023/09/14 04:10:51;;;;;;;2.97;2.43;;;14.90;99.90;;;;;;5084863;28;20217;-65
2023/09/14 04:13:31;;;;;;;3.70;3.03;;;14.90;99.90;;;;;;5084556;28;20214;-66
2023/09/14 04:16:01;;;;;;;5.23;3.43;;;14.90;99.90;;;;;;5084962;28;20191;-66
2023/09/14 04:18:28;;;;;;;4.50;2.87;;;14.70;99.90;;;;;;5084436;28;20289;-66
2023/09/14 04:20:56;;;;;;;4.37;2.93;;;14.70;99.90;;;;;;5084060;28;20945;-66
2023/09/14 04:23:23;;;;;;;5.37;3.23;;;14.80;99.90;;;;;;5084504;28;20305;-66
2023/09/14 04:25:51;;;;;;;4.47;3.17;;;14.80;99.90;;;;;;5084261;28;20206;-66
2023/09/14 04:28:21;;;;;;;3.93;2.80;;;14.70;99.90;;;;;;5084251;28;20619;-66
2023/09/14 04:30:49;;;;;;;5.73;2.73;;;14.70;99.90;;;;;;5084346;28;20203;-66
2023/09/14 04:33:18;;;;;;;3.60;2.50;;;14.70;99.90;;;;;;5084976;28;20211;-66
2023/09/14 04:35:46;;;;;;;3.17;2.80;;;14.60;99.90;;;;;;5084752;28;20288;-66
2023/09/14 04:38:13;;;;;;;6.53;2.90;;;14.60;99.90;;;;;;5084604;28;20313;-66
2023/09/14 04:40:41;;;;;;;3.20;2.90;;;14.60;99.90;;;;;;5084052;28;20247;-66
2023/09/14 04:43:09;;;;;;;3.23;2.60;;;14.50;99.90;;;;;;5084983;28;20264;-66
2023/09/14 04:45:36;;;;;;;4.70;2.80;;;14.50;99.90;;;;;;5088385;28;20205;-66
2023/09/14 04:48:03;;;;;;;3.43;2.93;;;14.50;99.90;;;;;;5088746;28;20331;-66
2023/09/14 04:50:31;;;;;;;4.00;2.97;;;14.50;99.90;;;;;;5088853;28;20248;-65
2023/09/14 04:52:58;;;;;;;3.40;2.70;;;14.50;99.90;;;;;;5088391;28;20301;-65
2023/09/14 04:55:26;;;;;;;3.43;2.93;;;14.50;99.90;;;;;;5088723;28;20211;-66
2023/09/14 04:57:53;;;;;;;7.50;2.83;;;14.50;99.90;;;;;;5088081;28;20218;-66
2023/09/14 05:00:20;;;;;;;5.87;3.27;;;14.50;99.90;;;;;;5088125;28;20305;-65
2023/09/14 05:02:47;;;;;;;4.17;2.57;;;14.40;99.90;;;;;;5088080;28;20626;-65
2023/09/14 05:05:14;;;;;;;4.43;2.90;;;14.40;99.90;;;;;;5087073;28;20230;-65
2023/09/14 05:07:43;;;;;;;4.83;2.80;;;14.40;99.90;;;;;;5086890;28;20309;-65
2023/09/14 05:10:10;;;;;;;3.40;3.10;;;14.30;99.90;;;;;;5087780;28;20868;-65
2023/09/14 05:12:37;;;;;;;4.63;2.83;;;14.40;99.90;;;;;;5087899;28;20313;-66
2023/09/14 05:15:05;;;;;;;6.80;3.10;;;14.40;99.90;;;;;;5087814;28;20859;-65
2023/09/14 05:17:32;;;;;;;4.57;3.07;;;14.30;99.90;;;;;;5087811;28;20215;-65
2023/09/14 05:19:59;;;;;;;5.23;3.10;;;14.30;99.90;;;;;;5088058;28;20326;-65
2023/09/14 05:22:25;;;;;;;6.87;3.07;;;14.30;99.90;;;;;;5087840;28;20908;-65
2023/09/14 05:24:54;;;;;;;6.00;3.23;;;14.20;99.90;;;;;;5087579;28;20217;-65
2023/09/14 05:27:21;;;;;;;4.00;3.33;;;14.30;99.90;;;;;;5087434;28;20248;-65
2023/09/14 05:29:48;;;;;;;3.63;3.20;;;14.20;99.90;;;;;;5087756;28;20289;-66
2023/09/14 05:32:15;;;;;;;5.47;3.70;;;14.20;99.90;;;;;;5087632;28;20298;-65
2023/09/14 05:34:42;;;;;;;5.67;3.00;;;14.20;99.90;;;;;;5073856;28;20684;-65
2023/09/14 05:37:10;;;;;;;5.97;2.87;;;14.20;99.90;;;;;;5083566;28;20293;-65
2023/09/14 05:39:37;;;;;;;3.77;3.17;;;14.20;99.90;;;;;;5087536;28;20307;-65
2023/09/14 05:42:06;;;;;;;4.47;3.30;;;13.80;99.90;;;;;;5087674;28;20317;-66
2023/09/14 05:44:33;;;;;;;5.17;3.13;;;13.60;99.90;;;;;;5087222;28;20294;-66
2023/09/14 05:47:00;;;;;;;3.87;2.90;;;13.70;99.90;;;;;;5087539;28;20203;-65
2023/09/14 05:49:27;;;;;;;3.50;3.17;;;13.80;99.90;;;;;;5087541;28;20254;-65
2023/09/14 05:51:54;;;;;;;5.37;2.90;;;13.70;99.90;;;;;;5086934;28;20242;-65
2023/09/14 05:54:21;;;;;;;5.00;3.30;;;13.60;99.90;;;;;;5067342;28;20211;-66
2023/09/14 05:56:48;;;;;;;4.93;3.33;;;13.70;99.90;;;;;;5077912;28;20293;-66
2023/09/14 05:59:17;;;;;;;4.33;2.80;;;13.90;99.90;;;;;;5086895;28;20736;-65
2023/09/14 06:01:44;;;;;;;3.47;3.00;;;14.00;99.90;;;;;;5086924;28;20217;-65
2023/09/14 06:04:11;;;;;;;5.80;3.63;;;14.10;99.90;;;;;;5087036;28;20245;-65
2023/09/14 06:06:38;;;;;;;3.17;2.87;;;14.10;99.90;;;;;;5086750;28;20289;-66
2023/09/14 06:09:05;;;;;;;3.60;2.97;;;14.20;99.90;;;;;;5086391;28;20321;-65
2023/09/14 06:11:32;;;;;;;5.33;3.20;;;13.90;99.90;;;;;;5086558;28;20238;-66
2023/09/14 06:13:59;;;;;;;5.17;3.57;;;13.70;99.90;;;;;;5086406;28;20225;-65
2023/09/14 06:16:27;;;;;;;3.83;3.40;;;13.70;99.90;;;;;;5086567;28;20294;-65
2023/09/14 06:18:54;;;;;;;3.87;3.37;;;13.60;99.90;;;;;;5086460;28;20206;-65
2023/09/14 06:21:21;;;;;;;4.50;3.00;;;13.50;99.90;;;;;;5086299;28;20286;-66
2023/09/14 06:23:50;;;;;;;4.10;3.17;;;13.60;99.90;;;;;;5086574;28;20340;-65
2023/09/14 06:26:17;;;;;;;3.90;3.27;;;13.70;99.90;;;;;;5086621;28;20302;-65
2023/09/14 06:28:44;;;;;;;6.13;3.40;;;13.70;99.90;;;;;;5085484;28;20716;-65
2023/09/14 06:31:11;;;;;;;3.30;3.10;;;13.60;99.90;;;;;;5086241;28;20380;-66
2023/09/14 06:33:39;;;;;;;7.37;3.53;;;13.80;99.90;;;;;;5086115;28;20210;-65
2023/09/14 06:36:06;;;;;;;4.13;2.90;;;13.70;99.90;;;;;;5085728;28;20231;-65
2023/09/14 06:38:33;;;;;;;5.50;3.53;;;13.70;99.90;;;;;;5085589;28;20253;-65
2023/09/14 06:41:00;;;;;;;3.40;3.10;;;13.80;99.90;;;;;;5085742;28;20341;-65
2023/09/14 06:43:27;;;;;;;3.10;2.90;;;13.80;99.90;;;;;;5086023;28;20215;-66
2023/09/14 06:45:53;;;;;;;3.63;3.27;;;13.90;99.90;;;;;;5085863;28;20290;-65
2023/09/14 06:48:20;;;;;;;3.70;3.10;;;14.00;99.90;;;;;;5086189;28;20273;-66
2023/09/14 06:50:49;;;;;;;6.60;3.20;;;14.00;99.90;;;;;;5085651;28;20837;-65
2023/09/14 06:53:15;;;;;;;3.00;2.80;;;14.10;99.90;;;;;;5085706;28;20211;-66
2023/09/14 06:55:43;;;;;;;3.33;3.00;;;14.20;99.90;;;;;;5085873;28;20297;-65
2023/09/14 06:58:10;;;;;;;4.77;4.37;;;14.30;99.90;;;;;;5085852;28;20335;-66
2023/09/14 07:00:37;;;;;;;5.10;4.60;;;14.40;99.90;;;;;;5085701;28;20246;-66
2023/09/14 07:03:04;;;;;;;4.23;3.23;;;14.40;99.90;;;;;;5085563;28;20313;-65
2023/09/14 07:05:33;;;;;;;3.47;3.10;;;14.40;99.90;;;;;;5085300;28;21083;-65
2023/09/14 07:08:02;;;;;;;3.23;3.03;;;14.40;99.90;;;;;;5085293;28;20217;-65
2023/09/14 07:10:29;;;;;;;6.93;3.00;;;14.60;99.90;;;;;;5085371;28;20328;-65
2023/09/14 07:12:56;;;;;;;4.43;3.10;;;14.70;99.90;;;;;;5085418;28;20296;-65
2023/09/14 07:15:23;;;;;;;3.60;2.87;;;14.80;99.90;;;;;;5085217;28;20660;-65
2023/09/14 07:17:50;;;;;;;2.90;2.70;;;14.90;99.90;;;;;;5085498;28;20217;-66
2023/09/14 07:20:17;;;;;;;4.70;2.90;;;15.00;99.90;;;;;;5085453;28;20199;-66
2023/09/14 07:22:44;;;;;;;4.33;2.97;;;15.10;99.90;;;;;;5085312;28;20265;-66
2023/09/14 07:25:13;;;;;;;3.40;3.10;;;15.30;99.90;;;;;;5085412;28;20343;-66
2023/09/14 07:27:40;;;;;;;3.23;2.70;;;15.40;99.90;;;;;;5085068;28;20318;-67
2023/09/14 07:30:08;;;;;;;4.00;2.87;;;15.50;99.90;;;;;;5085637;28;20330;-66
2023/09/14 07:32:34;;;;;;;7.17;3.60;;;15.60;99.90;;;;;;5085283;28;20207;-66
2023/09/14 07:35:02;;;;;;;4.27;2.83;;;15.80;99.90;;;;;;5085457;28;20207;-65
2023/09/14 07:37:29;;;;;;;3.50;3.20;;;15.90;99.90;;;;;;5084832;28;20199;-66
2023/09/14 07:39:56;;;;;;;5.87;3.20;;;15.90;99.90;;;;;;5085084;28;20250;-66
2023/09/14 07:42:24;;;;;;;4.17;2.83;;;16.00;99.90;;;;;;5084981;28;21040;-66
2023/09/14 07:44:51;;;;;;;5.63;2.70;;;16.10;99.90;;;;;;5084726;28;20294;-66
2023/09/14 07:47:18;;;;;;;4.67;3.03;;;16.20;99.90;;;;;;5085301;28;20315;-66
2023/09/14 07:49:46;;;;;;;3.17;2.70;;;16.30;99.90;;;;;;5070282;28;20322;-66
2023/09/14 07:52:13;;;;;;;2.63;2.43;;;16.30;99.90;;;;;;5065136;28;20217;-66
2023/09/14 07:54:40;;;;;;;4.30;2.93;;;16.40;99.90;;;;;;5064680;28;20294;-66
2023/09/14 07:57:07;;;;;;;3.80;2.50;;;16.40;99.90;;;;;;5064687;28;20239;-66
2023/09/14 07:59:35;;;;;;;5.57;2.83;;;16.40;99.90;;;;;;5064337;28;20290;-66
2023/09/14 08:02:02;;;;;;;4.30;2.80;;;16.50;99.90;;;;;;5064969;28;20274;-66
2023/09/14 08:04:29;;;;;;;4.53;2.67;;;16.50;99.90;;;;;;5064799;28;20242;-66
2023/09/14 08:06:55;;;;;;;5.83;2.80;;;16.70;99.90;;;;;;5071514;28;20242;-66
2023/09/14 08:09:22;;;;;;;4.67;2.30;;;16.70;99.90;;;;;;5085115;28;20299;-66
2023/09/14 08:11:50;;;;;;;3.10;2.80;;;16.80;99.90;;;;;;5085053;28;20302;-67
2023/09/14 08:14:17;;;;;;;3.97;2.87;;;16.90;99.90;;;;;;5084641;28;20202;-66
2023/09/14 08:16:45;;;;;;;2.93;2.53;;;17.00;99.90;;;;;;5084836;28;20206;-66
2023/09/14 08:19:12;;;;;;;2.60;2.17;;;17.00;99.90;;;;;;5088202;28;20297;-66
2023/09/14 08:21:39;;;;;;;2.80;2.20;;;17.00;99.90;;;;;;5088743;28;20642;-66
2023/09/14 08:24:06;;;;;;;3.60;2.33;;;17.00;99.90;;;;;;5089031;28;20294;-66
2023/09/14 08:26:33;;;;;;;2.60;2.20;;;17.10;99.90;;;;;;5088745;28;20578;-66
2023/09/14 08:29:00;;;;;;;2.97;2.27;;;17.20;99.90;;;;;;5088319;28;20230;-65
2023/09/14 08:31:27;;;;;;;5.17;2.10;;;17.30;99.90;;;;;;5089204;28;20609;-66
2023/09/14 08:33:55;;;;;;;4.00;1.63;;;17.40;99.90;;;;;;5088553;28;20740;-66
2023/09/14 08:36:22;;;;;;;3.37;1.70;;;17.50;99.90;;;;;;5089004;28;20202;-66
2023/09/14 08:38:49;;;;;;;2.57;2.10;;;17.50;99.90;;;;;;5088859;28;20624;-66
2023/09/14 08:41:26;;;;;;;2.90;2.07;;;17.60;99.90;;;;;;5088773;28;20857;-66
2023/09/14 08:43:54;;;;;;;3.03;2.23;;;17.70;99.90;;;;;;5088719;28;20278;-67
2023/09/14 08:46:23;;;;;;;1.83;1.67;;;17.80;99.90;;;;;;5088848;28;20237;-66
2023/09/14 08:48:53;;;;;;;4.03;2.10;;;17.90;99.90;;;;;;5088884;28;20318;-66
2023/09/14 08:51:22;;;;;;;3.10;1.90;;;18.00;99.90;;;;;;5088705;28;20206;-66
2023/09/14 08:53:49;;;;;;;2.60;1.80;;;18.10;99.90;;;;;;5088777;28;20210;-66
2023/09/14 08:56:17;;;;;;;2.00;1.90;;;18.10;99.90;;;;;;5088580;28;20214;-65
2023/09/14 08:58:45;;;;;;;4.43;1.70;;;18.10;99.90;;;;;;5087535;28;20268;-66
2023/09/14 09:01:17;;;;;;;2.20;1.77;;;18.10;99.90;;;;;;5087802;28;20289;-66
2023/09/14 09:03:43;;;;;;;2.47;1.70;;;18.20;99.90;;;;;;5087770;28;20207;-68
2023/09/14 09:06:11;;;;;;;4.80;1.83;;;18.30;99.90;;;;;;5087940;28;20225;-66
2023/09/14 09:08:39;;;;;;;4.53;1.90;;;18.30;99.90;;;;;;5088035;28;20210;-65
2023/09/14 09:11:07;;;;;;;4.20;1.90;;;18.40;99.90;;;;;;5087679;28;20802;-66
2023/09/14 09:13:34;;;;;;;2.27;1.97;;;18.60;99.90;;;;;;5087704;28;20203;-67
2023/09/14 09:16:01;;;;;;;2.13;1.93;;;18.60;99.90;;;;;;5088126;28;20215;-66
2023/09/14 09:18:28;;;;;;;3.27;2.13;;;18.70;99.90;;;;;;5088004;28;20628;-66
2023/09/14 09:20:57;;;;;;;2.13;1.97;;;18.80;99.90;;;;;;5087745;28;20652;-66
2023/09/14 09:23:26;;;;;;;3.07;2.03;;;18.90;99.90;;;;;;5088121;28;20286;-66
2023/09/14 09:25:55;;;;;;;6.20;2.00;;;18.90;99.90;;;;;;5087690;28;20210;-66
2023/09/14 09:28:29;;;;;;;3.37;2.10;;;18.90;99.90;;;;;;5087466;28;20746;-66
2023/09/14 09:30:56;;;;;;;2.40;2.13;;;19.00;99.90;;;;;;5086767;28;20218;-66
2023/09/14 09:33:34;;;;;;;3.07;1.90;;;18.90;99.90;;;;;;5087281;28;20666;-66
2023/09/14 09:36:02;;;;;;;2.07;1.60;;;18.90;99.90;;;;;;5087429;28;20191;-66
2023/09/14 09:38:37;;;;;;;3.50;1.83;;;18.80;99.90;;;;;;5087357;28;20588;-66
2023/09/14 09:41:11;;;;;;;4.83;1.93;;;18.90;99.90;;;;;;5081922;28;20238;-66
2023/09/14 09:43:38;;;;;;;1.80;1.67;;;19.10;99.90;;;;;;5066983;28;20200;-66
2023/09/14 09:46:14;;;;;;;4.10;1.67;;;19.20;99.90;;;;;;5066723;28;20281;-65
2023/09/14 09:48:41;;;;;;;4.40;1.87;;;19.40;99.90;;;;;;5066831;28;20864;-66
2023/09/14 09:51:08;;;;;;;2.00;1.80;;;19.50;99.90;;;;;;5066967;28;20290;-66
2023/09/14 09:53:35;;;;;;;4.10;1.80;;;19.60;99.90;;;;;;5066772;28;20210;-66
2023/09/14 09:56:02;;;;;;;2.70;1.80;;;19.70;99.90;;;;;;5067110;28;20210;-66
2023/09/14 09:58:36;;;;;;;2.27;2.07;;;19.70;99.90;;;;;;5070671;28;20210;-66
2023/09/14 10:01:04;;;;;;;2.60;1.67;;;19.70;99.90;;;;;;5066518;28;20290;-66
2023/09/14 10:03:31;;;;;;;3.33;2.07;;;19.50;99.90;;;;;;5066541;28;20208;-66
2023/09/14 10:05:58;;;;;;;3.03;1.60;;;19.40;99.90;;;;;;5066809;28;20606;-66
2023/09/14 10:08:25;;;;;;;3.53;1.67;;;19.50;99.90;;;;;;5069880;28;20206;-66
2023/09/14 10:10:52;;;;;;;2.90;1.60;;;19.60;99.90;;;;;;5086313;28;20325;-66
2023/09/14 10:13:21;;;;;;;2.23;1.80;;;19.80;99.90;;;;;;5086132;28;20302;-66
2023/09/14 10:15:51;;;;;;;1.93;1.70;;;20.00;99.90;;;;;;5086485;28;20685;-66
2023/09/14 10:18:20;;;;;;;2.40;1.80;;;20.20;99.90;;;;;;5086693;28;20234;-66
2023/09/14 10:20:49;;;;;;;3.63;2.10;;;20.10;99.90;;;;;;5086410;28;20207;-66
2023/09/14 10:23:19;;;;;;;1.70;1.60;;;20.30;99.90;;;;;;5086839;28;20238;-66
2023/09/14 10:25:49;;;;;;;4.40;1.87;;;20.40;99.90;;;;;;5086076;28;20207;-66
2023/09/14 10:28:17;;;;;;;2.45;1.40;;;20.50;99.90;;;;;;5085987;28;20547;-66
2023/09/14 10:30:45;;;;;;;3.85;2.13;;;20.90;99.90;;;;;;5085683;28;20325;-66
2023/09/14 10:33:15;;;;;;;2.47;1.90;;;20.90;99.90;;;;;;5086131;28;20206;-66
2023/09/14 10:35:43;;;;;;;4.88;2.17;;;21.00;99.90;;;;;;5085719;28;20649;-66
2023/09/14 10:38:10;;;;;;;2.13;1.80;;;21.10;99.90;;;;;;5086046;28;20256;-66
2023/09/14 10:40:38;;;;;;;3.83;1.65;;;21.10;99.90;;;;;;5085038;28;20713;-67
2023/09/14 10:43:05;;;;;;;2.15;1.70;;;21.20;99.90;;;;;;5085451;28;20263;-66
2023/09/14 10:45:36;;;;;;;3.00;1.70;;;21.20;99.90;;;;;;5085868;28;20230;-66
2023/09/14 10:48:07;;;;;;;2.90;2.08;;;21.00;99.90;;;;;;5086189;28;20199;-66
2023/09/14 10:50:36;;;;;;;2.05;1.85;;;20.80;99.90;;;;;;5085684;28;20337;-66
2023/09/14 10:53:03;;;;;;;3.97;2.00;;;20.70;99.90;;;;;;5085849;28;20296;-66
2023/09/14 10:55:32;;;;;;;2.80;1.80;;;20.60;99.90;;;;;;5085689;28;20744;-66
2023/09/14 10:58:00;;;;;;;2.42;1.70;;;20.60;99.90;;;;;;5085622;28;20289;-66
2023/09/14 11:00:34;;;;;;;1.73;1.60;;;20.60;99.90;;;;;;5085656;28;20214;-66
2023/09/14 11:03:00;;;;;;;4.82;1.83;;;20.70;99.90;;;;;;5085632;28;20195;-67
2023/09/14 11:05:39;;;;;;;1.75;1.65;;;20.80;99.90;;;;;;5085292;28;20300;-66
2023/09/14 11:08:06;;;;;;;2.13;1.93;;;20.80;99.90;;;;;;5085563;28;20195;-66
2023/09/14 11:10:34;;;;;;;2.45;1.88;;;20.70;99.90;;;;;;5085429;28;20262;-66
2023/09/14 11:13:28;;;;;;;2.03;1.77;;;20.70;99.90;;;;;;5065277;28;20215;-66
2023/09/14 11:15:57;;;;;;;3.63;1.90;;;20.70;99.90;;;;;;5064788;28;20218;-67
2023/09/14 11:18:51;;;;;;;1.95;1.60;;;20.70;99.90;;;;;;5065155;28;20264;-66
2023/09/14 11:21:44;;;;;;;1.87;1.77;;;20.80;99.90;;;;;;5065509;28;20226;-66
2023/09/14 11:24:13;;;;;;;3.95;1.88;;;21.00;99.90;;;;;;5064926;28;20673;-66
2023/09/14 11:26:49;;;;;;;4.57;1.80;;;21.10;99.90;;;;;;5064747;28;20284;-66
2023/09/14 11:29:16;;;;;;;1.88;1.40;;;21.10;99.90;;;;;;5064084;28;20681;-66
2023/09/14 11:31:43;;;;;;;3.58;1.50;;;21.10;99.90;;;;;;5083738;28;20771;-66
2023/09/14 11:34:14;;;;;;;1.75;1.45;;;21.10;99.90;;;;;;5085138;28;20639;-66
2023/09/14 11:36:44;;;;;;;1.67;1.40;;;21.00;99.90;;;;;;5084703;28;20291;-66
2023/09/14 11:39:12;;;;;;;1.88;1.50;;;20.90;99.90;;;;;;5084838;28;20206;-67
2023/09/14 11:41:57;;;;;;;2.08;1.73;;;20.80;99.90;;;;;;5084890;28;20587;-67
2023/09/14 11:44:27;;;;;;;1.70;1.58;;;20.80;99.90;;;;;;5084882;28;20713;-66
2023/09/14 11:46:57;;;;;;;1.80;1.45;;;20.80;99.90;;;;;;5085023;28;20612;-66
2023/09/14 11:49:30;;;;;;;3.70;2.00;;;20.90;99.90;;;;;;5084461;28;20202;-66
2023/09/14 11:51:58;;;;;;;1.60;1.50;;;20.90;99.90;;;;;;5084589;28;20237;-66
2023/09/14 11:54:30;;;;;;;2.90;1.58;;;20.80;99.90;;;;;;5085225;28;20214;-66
2023/09/14 11:57:01;;;;;;;2.35;1.52;;;20.80;99.90;;;;;;5085482;28;20279;-66
2023/09/14 11:59:30;;;;;;;3.17;1.77;;;20.80;99.90;;;;;;5084897;28;20207;-66
2023/09/14 12:01:57;;;;;;;2.90;1.75;;;20.90;99.90;;;;;;5084637;28;20207;-66
2023/09/14 12:04:28;;;;;;;1.73;1.45;;;21.20;99.90;;;;;;5085112;28;20230;-66
2023/09/14 12:06:55;;;;;;;3.70;1.95;;;21.60;99.90;;;;;;5079506;28;20382;-67
2023/09/14 12:09:40;;;;;;;2.17;1.98;;;22.00;99.90;;;;;;5084733;28;20211;-67
2023/09/14 12:12:10;;;;;;;3.58;1.70;;;22.20;99.90;;;;;;5084846;28;20206;-66
2023/09/14 12:14:40;;;;;;;2.75;1.80;;;22.40;99.90;;;;;;5084233;28;20207;-66
2023/09/14 12:17:20;;;;;;;1.98;1.60;;;22.70;99.90;;;;;;5084536;28;20276;-66
2023/09/14 12:19:51;;;;;;;1.98;1.70;;;23.00;99.90;;;;;;5084183;28;20979;-66
2023/09/14 12:22:20;;;;;;;2.10;1.85;;;23.30;99.90;;;;;;5084403;28;20250;-66
2023/09/14 12:24:50;;;;;;;2.00;1.73;;;23.60;99.90;;;;;;5084571;28;20211;-66
2023/09/14 12:27:18;;;;;;;2.22;1.55;;;23.80;99.90;;;;;;5071077;28;20315;-66
2023/09/14 12:29:47;;;;;;;3.38;1.92;;;23.80;99.90;;;;;;5068232;28;20203;-67
2023/09/14 12:32:15;;;;;;;1.70;1.60;;;24.00;99.90;;;;;;5084430;28;20229;-66
2023/09/14 12:34:42;;;;;;;4.55;1.85;;;24.20;99.90;;;;;;5084541;28;20298;-66
2023/09/14 12:37:10;;;;;;;2.80;1.65;;;24.20;99.90;;;;;;5084181;28;20242;-66
2023/09/14 12:39:38;;;;;;;3.25;2.00;;;24.40;99.90;;;;;;5084118;28;20353;-67
2023/09/14 12:42:08;;;;;;;4.43;1.83;;;24.50;99.90;;;;;;5084090;28;20206;-66
2023/09/14 12:44:37;;;;;;;2.08;1.60;;;24.60;99.90;;;;;;5084286;28;20210;-67
2023/09/14 12:47:06;;;;;;;3.00;1.77;;;24.70;99.90;;;;;;5084099;28;20948;-67
2023/09/14 12:49:35;;;;;;;2.05;1.67;;;24.80;99.80;;;;;;5084034;28;20220;-66
2023/09/14 12:52:06;;;;;;;1.70;1.58;;;24.90;99.50;;;;;;5084367;28;20308;-67
2023/09/14 12:54:33;;;;;;;1.80;1.48;;;24.90;98.80;;;;;;5084521;28;20203;-66